sensor_id;sensor_type;location;lat;lon;timestamp;temperature;humidity
5508;DHT22;2776;51.046;6.772;2022-11-04T00:01:38;11.10;99.90
5508;DHT22;2776;51.046;6.772;2022-11-04T00:04:05;11.00;99.90
5508;DHT22;2776;51.046;6.772;2022-11-04T00:06:34;11.10;99.90
5508;DHT22;2776;51.046;6.772;2022-11-04T00:09:01;11.00;99.90
5508;DHT22;2776;51.046;6.772;2022-11-04T00:11:28;11.00;99.90
5508;DHT22;2776;51.046;6.772;2022-11-04T00:14:13;11.00;99.90
5508;DHT22;2776;51.046;6.772;2022-11-04T00:16:41;11.00;99.90
5508;DHT22;2776;51.046;6.772;2022-11-04T00:19:25;11.00;99.90
5508;DHT22;2776;51.046;6.772;2022-11-04T00:21:54;11.00;99.90
5508;DHT22;2776;51.046;6.772;2022-11-04T00:24:38;11.00;99.90
5508;DHT22;2776;51.046;6.772;2022-11-04T00:27:36;11.10;99.90
5508;DHT22;2776;51.046;6.772;2022-11-04T00:30:20;11.10;99.90
5508;DHT22;2776;51.046;6.772;2022-11-04T00:32:47;11.10;99.90
5508;DHT22;2776;51.046;6.772;2022-11-04T00:35:31;11.10;99.90
5508;DHT22;2776;51.046;6.772;2022-11-04T00:38:00;11.10;99.90
5508;DHT22;2776;51.046;6.772;2022-11-04T00:40:26;11.10;99.90
5508;DHT22;2776;51.046;6.772;2022-11-04T00:42:53;11.20;99.90
5508;DHT22;2776;51.046;6.772;2022-11-04T00:45:20;11.10;99.90
5508;DHT22;2776;51.046;6.772;2022-11-04T00:47:46;11.20;99.90
5508;DHT22;2776;51.046;6.772;2022-11-04T00:50:13;11.20;99.90
5508;DHT22;2776;51.046;6.772;2022-11-04T00:52:40;11.30;99.90
5508;DHT22;2776;51.046;6.772;2022-11-04T00:55:08;11.30;99.90
5508;DHT22;2776;51.046;6.772;2022-11-04T00:57:36;11.30;99.90
5508;DHT22;2776;51.046;6.772;2022-11-04T01:00:04;11.30;99.90
5508;DHT22;2776;51.046;6.772;2022-11-04T01:02:31;11.30;99.90
5508;DHT22;2776;51.046;6.772;2022-11-04T01:04:58;11.30;99.90
5508;DHT22;2776;51.046;6.772;2022-11-04T01:07:25;11.40;99.90
5508;DHT22;2776;51.046;6.772;2022-11-04T01:09:51;11.30;99.90
5508;DHT22;2776;51.046;6.772;2022-11-04T01:12:19;11.30;99.90
5508;DHT22;2776;51.046;6.772;2022-11-04T01:14:46;11.40;99.90
5508;DHT22;2776;51.046;6.772;2022-11-04T01:17:14;11.40;99.90
5508;DHT22;2776;51.046;6.772;2022-11-04T01:19:41;11.40;99.90
5508;DHT22;2776;51.046;6.772;2022-11-04T01:22:07;11.40;99.90
5508;DHT22;2776;51.046;6.772;2022-11-04T01:24:34;11.50;99.90
5508;DHT22;2776;51.046;6.772;2022-11-04T01:27:01;11.50;99.90
5508;DHT22;2776;51.046;6.772;2022-11-04T01:29:29;11.40;99.90
5508;DHT22;2776;51.046;6.772;2022-11-04T01:31:56;11.30;99.90
5508;DHT22;2776;51.046;6.772;2022-11-04T01:34:22;11.20;99.90
5508;DHT22;2776;51.046;6.772;2022-11-04T01:36:49;11.20;99.90
5508;DHT22;2776;51.046;6.772;2022-11-04T01:39:16;11.10;99.90
5508;DHT22;2776;51.046;6.772;2022-11-04T01:41:43;11.10;99.90
5508;DHT22;2776;51.046;6.772;2022-11-04T01:44:46;11.00;99.90
5508;DHT22;2776;51.046;6.772;2022-11-04T01:47:16;10.90;99.90
5508;DHT22;2776;51.046;6.772;2022-11-04T01:49:45;10.90;99.90
5508;DHT22;2776;51.046;6.772;2022-11-04T01:52:16;10.80;99.90
5508;DHT22;2776;51.046;6.772;2022-11-04T01:54:45;10.80;99.90
5508;DHT22;2776;51.046;6.772;2022-11-04T01:57:18;10.80;99.90
5508;DHT22;2776;51.046;6.772;2022-11-04T01:59:46;10.70;99.90
5508;DHT22;2776;51.046;6.772;2022-11-04T02:02:13;10.70;99.90
5508;DHT22;2776;51.046;6.772;2022-11-04T02:04:41;10.70;99.90
5508;DHT22;2776;51.046;6.772;2022-11-04T02:07:09;10.70;99.90
5508;DHT22;2776;51.046;6.772;2022-11-04T02:09:37;10.70;99.90
5508;DHT22;2776;51.046;6.772;2022-11-04T02:12:05;10.60;99.90
5508;DHT22;2776;51.046;6.772;2022-11-04T02:14:52;10.60;99.90
5508;DHT22;2776;51.046;6.772;2022-11-04T02:17:32;10.60;99.90
5508;DHT22;2776;51.046;6.772;2022-11-04T02:20:10;10.50;99.90
5508;DHT22;2776;51.046;6.772;2022-11-04T02:23:08;10.50;99.90
5508;DHT22;2776;51.046;6.772;2022-11-04T02:26:10;10.40;99.90
5508;DHT22;2776;51.046;6.772;2022-11-04T02:29:18;10.40;99.90
5508;DHT22;2776;51.046;6.772;2022-11-04T02:31:50;10.30;99.90
5508;DHT22;2776;51.046;6.772;2022-11-04T02:34:22;10.20;99.90
5508;DHT22;2776;51.046;6.772;2022-11-04T02:36:57;10.20;99.90
5508;DHT22;2776;51.046;6.772;2022-11-04T02:39:32;10.10;99.90
5508;DHT22;2776;51.046;6.772;2022-11-04T02:42:06;10.10;99.90
5508;DHT22;2776;51.046;6.772;2022-11-04T02:44:40;10.00;99.90
5508;DHT22;2776;51.046;6.772;2022-11-04T02:47:13;10.00;99.90
5508;DHT22;2776;51.046;6.772;2022-11-04T02:49:47;10.00;99.90
5508;DHT22;2776;51.046;6.772;2022-11-04T02:52:18;9.90;99.90
5508;DHT22;2776;51.046;6.772;2022-11-04T02:54:50;9.90;99.90
5508;DHT22;2776;51.046;6.772;2022-11-04T02:57:21;9.90;99.90
5508;DHT22;2776;51.046;6.772;2022-11-04T02:59:54;9.80;99.90
5508;DHT22;2776;51.046;6.772;2022-11-04T03:02:26;9.80;99.90
5508;DHT22;2776;51.046;6.772;2022-11-04T03:04:54;9.90;99.90
5508;DHT22;2776;51.046;6.772;2022-11-04T03:07:25;9.90;99.90
5508;DHT22;2776;51.046;6.772;2022-11-04T03:09:57;9.90;99.90
5508;DHT22;2776;51.046;6.772;2022-11-04T03:12:27;9.90;99.90
5508;DHT22;2776;51.046;6.772;2022-11-04T03:15:00;9.90;99.90
5508;DHT22;2776;51.046;6.772;2022-11-04T03:17:32;9.80;99.90
5508;DHT22;2776;51.046;6.772;2022-11-04T03:20:03;9.80;99.90
5508;DHT22;2776;51.046;6.772;2022-11-04T03:22:34;9.80;99.90
5508;DHT22;2776;51.046;6.772;2022-11-04T03:25:02;9.70;99.90
5508;DHT22;2776;51.046;6.772;2022-11-04T03:27:34;9.70;99.90
5508;DHT22;2776;51.046;6.772;2022-11-04T03:30:06;9.50;99.90
5508;DHT22;2776;51.046;6.772;2022-11-04T03:32:39;9.40;99.90
5508;DHT22;2776;51.046;6.772;2022-11-04T03:35:09;9.30;99.90
5508;DHT22;2776;51.046;6.772;2022-11-04T03:37:37;9.30;99.90
5508;DHT22;2776;51.046;6.772;2022-11-04T03:40:04;9.30;99.90
5508;DHT22;2776;51.046;6.772;2022-11-04T03:42:36;9.30;99.90
5508;DHT22;2776;51.046;6.772;2022-11-04T03:45:07;9.30;99.90
5508;DHT22;2776;51.046;6.772;2022-11-04T03:47:34;9.30;99.90
5508;DHT22;2776;51.046;6.772;2022-11-04T03:50:05;9.30;99.90
5508;DHT22;2776;51.046;6.772;2022-11-04T03:52:34;9.30;99.90
5508;DHT22;2776;51.046;6.772;2022-11-04T03:55:02;9.20;99.90
5508;DHT22;2776;51.046;6.772;2022-11-04T03:57:36;9.20;99.90
5508;DHT22;2776;51.046;6.772;2022-11-04T04:00:12;9.20;99.90
5508;DHT22;2776;51.046;6.772;2022-11-04T04:02:54;9.20;99.90
5508;DHT22;2776;51.046;6.772;2022-11-04T04:05:24;9.20;99.90
5508;DHT22;2776;51.046;6.772;2022-11-04T04:07:58;9.30;99.90
5508;DHT22;2776;51.046;6.772;2022-11-04T04:10:32;9.30;99.90
5508;DHT22;2776;51.046;6.772;2022-11-04T04:13:10;9.30;99.90
5508;DHT22;2776;51.046;6.772;2022-11-04T04:15:44;9.30;99.90
5508;DHT22;2776;51.046;6.772;2022-11-04T04:18:13;9.30;99.90
5508;DHT22;2776;51.046;6.772;2022-11-04T04:20:41;9.30;99.90
5508;DHT22;2776;51.046;6.772;2022-11-04T04:23:14;9.30;99.90
5508;DHT22;2776;51.046;6.772;2022-11-04T04:26:03;9.30;99.90
5508;DHT22;2776;51.046;6.772;2022-11-04T04:28:49;9.30;99.90
5508;DHT22;2776;51.046;6.772;2022-11-04T04:31:19;9.10;99.90
5508;DHT22;2776;51.046;6.772;2022-11-04T04:34:00;9.00;99.90
5508;DHT22;2776;51.046;6.772;2022-11-04T04:36:29;9.00;99.90
5508;DHT22;2776;51.046;6.772;2022-11-04T04:38:57;8.90;99.90
5508;DHT22;2776;51.046;6.772;2022-11-04T04:41:42;8.80;99.90
5508;DHT22;2776;51.046;6.772;2022-11-04T04:44:27;8.90;99.90
5508;DHT22;2776;51.046;6.772;2022-11-04T04:47:15;8.90;99.90
5508;DHT22;2776;51.046;6.772;2022-11-04T04:49:51;8.90;99.90
5508;DHT22;2776;51.046;6.772;2022-11-04T04:52:18;8.90;99.90
5508;DHT22;2776;51.046;6.772;2022-11-04T04:54:46;8.90;99.90
5508;DHT22;2776;51.046;6.772;2022-11-04T04:57:13;8.90;99.90
5508;DHT22;2776;51.046;6.772;2022-11-04T04:59:39;8.80;99.90
5508;DHT22;2776;51.046;6.772;2022-11-04T05:02:06;8.80;99.90
5508;DHT22;2776;51.046;6.772;2022-11-04T05:04:34;8.70;99.90
5508;DHT22;2776;51.046;6.772;2022-11-04T05:07:01;8.70;99.90
5508;DHT22;2776;51.046;6.772;2022-11-04T05:09:28;8.70;99.90
5508;DHT22;2776;51.046;6.772;2022-11-04T05:11:54;8.70;99.90
5508;DHT22;2776;51.046;6.772;2022-11-04T05:14:21;8.70;99.90
5508;DHT22;2776;51.046;6.772;2022-11-04T05:16:48;8.60;99.90
5508;DHT22;2776;51.046;6.772;2022-11-04T05:19:15;8.60;99.90
5508;DHT22;2776;51.046;6.772;2022-11-04T05:21:43;8.40;99.90
5508;DHT22;2776;51.046;6.772;2022-11-04T05:24:09;8.30;99.90
5508;DHT22;2776;51.046;6.772;2022-11-04T05:26:36;8.30;99.90
5508;DHT22;2776;51.046;6.772;2022-11-04T05:29:03;8.30;99.90
5508;DHT22;2776;51.046;6.772;2022-11-04T05:31:29;8.30;99.90
5508;DHT22;2776;51.046;6.772;2022-11-04T05:33:56;8.30;99.90
5508;DHT22;2776;51.046;6.772;2022-11-04T05:36:24;8.20;99.90
5508;DHT22;2776;51.046;6.772;2022-11-04T05:38:53;8.10;99.90
5508;DHT22;2776;51.046;6.772;2022-11-04T05:41:21;8.10;99.90
5508;DHT22;2776;51.046;6.772;2022-11-04T05:43:51;8.00;99.90
5508;DHT22;2776;51.046;6.772;2022-11-04T05:46:18;8.10;99.90
5508;DHT22;2776;51.046;6.772;2022-11-04T05:48:44;8.10;99.90
5508;DHT22;2776;51.046;6.772;2022-11-04T05:51:12;8.10;99.90
5508;DHT22;2776;51.046;6.772;2022-11-04T05:53:39;8.10;99.90
5508;DHT22;2776;51.046;6.772;2022-11-04T05:56:08;8.10;99.90
5508;DHT22;2776;51.046;6.772;2022-11-04T05:58:35;8.10;99.90
5508;DHT22;2776;51.046;6.772;2022-11-04T06:01:27;8.10;99.90
5508;DHT22;2776;51.046;6.772;2022-11-04T06:03:54;8.10;99.90
5508;DHT22;2776;51.046;6.772;2022-11-04T06:06:23;8.10;99.90
5508;DHT22;2776;51.046;6.772;2022-11-04T06:08:50;8.00;99.90
5508;DHT22;2776;51.046;6.772;2022-11-04T06:11:19;8.00;99.90
5508;DHT22;2776;51.046;6.772;2022-11-04T06:13:46;7.90;99.90
5508;DHT22;2776;51.046;6.772;2022-11-04T06:16:14;7.90;99.90
5508;DHT22;2776;51.046;6.772;2022-11-04T06:18:41;7.90;99.90
5508;DHT22;2776;51.046;6.772;2022-11-04T06:21:16;7.90;99.90
5508;DHT22;2776;51.046;6.772;2022-11-04T06:23:44;7.90;99.90
5508;DHT22;2776;51.046;6.772;2022-11-04T06:26:12;7.80;99.90
5508;DHT22;2776;51.046;6.772;2022-11-04T06:28:40;7.90;99.90
5508;DHT22;2776;51.046;6.772;2022-11-04T06:31:08;7.90;99.90
5508;DHT22;2776;51.046;6.772;2022-11-04T06:33:35;7.90;99.90
5508;DHT22;2776;51.046;6.772;2022-11-04T06:36:04;8.00;99.90
5508;DHT22;2776;51.046;6.772;2022-11-04T06:38:33;8.00;99.90
5508;DHT22;2776;51.046;6.772;2022-11-04T06:41:00;8.10;99.90
5508;DHT22;2776;51.046;6.772;2022-11-04T06:43:27;8.10;99.90
5508;DHT22;2776;51.046;6.772;2022-11-04T06:45:56;8.20;99.90
5508;DHT22;2776;51.046;6.772;2022-11-04T06:48:23;8.20;99.90
5508;DHT22;2776;51.046;6.772;2022-11-04T06:50:50;8.40;99.90
5508;DHT22;2776;51.046;6.772;2022-11-04T06:53:17;8.40;99.90
5508;DHT22;2776;51.046;6.772;2022-11-04T06:55:44;8.60;99.90
5508;DHT22;2776;51.046;6.772;2022-11-04T06:58:10;8.60;99.90
5508;DHT22;2776;51.046;6.772;2022-11-04T07:00:37;8.60;99.90
5508;DHT22;2776;51.046;6.772;2022-11-04T07:03:05;8.60;99.90
5508;DHT22;2776;51.046;6.772;2022-11-04T07:05:32;8.60;99.90
5508;DHT22;2776;51.046;6.772;2022-11-04T07:07:59;8.60;99.90
5508;DHT22;2776;51.046;6.772;2022-11-04T07:10:26;8.60;99.90
5508;DHT22;2776;51.046;6.772;2022-11-04T07:12:53;8.60;99.90
5508;DHT22;2776;51.046;6.772;2022-11-04T07:15:20;8.60;99.90
5508;DHT22;2776;51.046;6.772;2022-11-04T07:17:46;8.70;99.90
5508;DHT22;2776;51.046;6.772;2022-11-04T07:20:15;8.80;99.90
5508;DHT22;2776;51.046;6.772;2022-11-04T07:22:41;8.80;99.90
5508;DHT22;2776;51.046;6.772;2022-11-04T07:25:08;8.80;99.90
5508;DHT22;2776;51.046;6.772;2022-11-04T07:27:35;8.90;99.90
5508;DHT22;2776;51.046;6.772;2022-11-04T07:30:02;9.10;99.90
5508;DHT22;2776;51.046;6.772;2022-11-04T07:32:29;9.20;99.90
5508;DHT22;2776;51.046;6.772;2022-11-04T07:34:55;9.20;99.90
5508;DHT22;2776;51.046;6.772;2022-11-04T07:37:23;9.30;99.90
5508;DHT22;2776;51.046;6.772;2022-11-04T07:39:50;9.40;99.90
5508;DHT22;2776;51.046;6.772;2022-11-04T07:42:17;9.40;99.90
5508;DHT22;2776;51.046;6.772;2022-11-04T07:44:46;9.40;99.90
5508;DHT22;2776;51.046;6.772;2022-11-04T07:47:12;9.40;99.90
5508;DHT22;2776;51.046;6.772;2022-11-04T07:49:39;9.40;99.90
5508;DHT22;2776;51.046;6.772;2022-11-04T07:52:06;9.40;99.90
5508;DHT22;2776;51.046;6.772;2022-11-04T07:54:34;9.50;99.90
5508;DHT22;2776;51.046;6.772;2022-11-04T07:57:01;9.50;99.90
5508;DHT22;2776;51.046;6.772;2022-11-04T07:59:28;9.50;99.90
5508;DHT22;2776;51.046;6.772;2022-11-04T08:01:54;9.50;99.90
5508;DHT22;2776;51.046;6.772;2022-11-04T08:04:21;9.60;99.90
5508;DHT22;2776;51.046;6.772;2022-11-04T08:06:48;9.60;99.90
5508;DHT22;2776;51.046;6.772;2022-11-04T08:09:15;9.70;99.90
5508;DHT22;2776;51.046;6.772;2022-11-04T08:11:43;9.70;99.90
5508;DHT22;2776;51.046;6.772;2022-11-04T08:14:10;9.70;99.90
5508;DHT22;2776;51.046;6.772;2022-11-04T08:16:37;9.80;99.90
5508;DHT22;2776;51.046;6.772;2022-11-04T08:19:03;9.90;99.90
5508;DHT22;2776;51.046;6.772;2022-11-04T08:21:31;9.90;99.90
5508;DHT22;2776;51.046;6.772;2022-11-04T08:23:58;10.10;99.90
5508;DHT22;2776;51.046;6.772;2022-11-04T08:26:27;10.10;99.90
5508;DHT22;2776;51.046;6.772;2022-11-04T08:28:56;10.30;99.90
5508;DHT22;2776;51.046;6.772;2022-11-04T08:31:24;10.30;99.90
5508;DHT22;2776;51.046;6.772;2022-11-04T08:33:53;10.40;99.90
5508;DHT22;2776;51.046;6.772;2022-11-04T08:36:22;10.50;99.90
5508;DHT22;2776;51.046;6.772;2022-11-04T08:38:50;10.50;99.90
5508;DHT22;2776;51.046;6.772;2022-11-04T08:41:22;10.60;99.90
5508;DHT22;2776;51.046;6.772;2022-11-04T08:43:49;10.70;99.90
5508;DHT22;2776;51.046;6.772;2022-11-04T08:46:17;10.70;99.90
5508;DHT22;2776;51.046;6.772;2022-11-04T08:48:44;10.70;99.90
5508;DHT22;2776;51.046;6.772;2022-11-04T08:51:13;10.80;99.90
5508;DHT22;2776;51.046;6.772;2022-11-04T08:53:40;10.90;99.90
5508;DHT22;2776;51.046;6.772;2022-11-04T08:56:12;11.00;99.90
5508;DHT22;2776;51.046;6.772;2022-11-04T08:58:39;11.10;99.90
5508;DHT22;2776;51.046;6.772;2022-11-04T09:01:06;11.30;99.90
5508;DHT22;2776;51.046;6.772;2022-11-04T09:03:35;11.30;99.90
5508;DHT22;2776;51.046;6.772;2022-11-04T09:06:03;11.40;99.90
5508;DHT22;2776;51.046;6.772;2022-11-04T09:08:29;11.30;99.90
5508;DHT22;2776;51.046;6.772;2022-11-04T09:10:56;11.40;99.90
5508;DHT22;2776;51.046;6.772;2022-11-04T09:13:23;11.50;99.90
5508;DHT22;2776;51.046;6.772;2022-11-04T09:15:50;11.60;99.90
5508;DHT22;2776;51.046;6.772;2022-11-04T09:18:17;11.70;99.90
5508;DHT22;2776;51.046;6.772;2022-11-04T09:20:45;11.80;99.90
5508;DHT22;2776;51.046;6.772;2022-11-04T09:23:12;11.90;99.90
5508;DHT22;2776;51.046;6.772;2022-11-04T09:25:39;11.70;99.90
5508;DHT22;2776;51.046;6.772;2022-11-04T09:28:06;11.90;99.90
5508;DHT22;2776;51.046;6.772;2022-11-04T09:30:33;12.00;99.90
5508;DHT22;2776;51.046;6.772;2022-11-04T09:32:59;12.20;99.90
5508;DHT22;2776;51.046;6.772;2022-11-04T09:35:26;12.30;99.90
5508;DHT22;2776;51.046;6.772;2022-11-04T09:37:55;12.40;99.90
5508;DHT22;2776;51.046;6.772;2022-11-04T09:40:23;12.60;99.90
5508;DHT22;2776;51.046;6.772;2022-11-04T09:43:05;12.60;99.90
5508;DHT22;2776;51.046;6.772;2022-11-04T09:45:38;12.60;99.90
5508;DHT22;2776;51.046;6.772;2022-11-04T09:48:12;12.50;99.90
5508;DHT22;2776;51.046;6.772;2022-11-04T09:50:47;12.60;99.90
5508;DHT22;2776;51.046;6.772;2022-11-04T09:53:21;12.50;99.90
5508;DHT22;2776;51.046;6.772;2022-11-04T09:55:53;12.40;99.90
5508;DHT22;2776;51.046;6.772;2022-11-04T09:58:21;12.30;99.90
5508;DHT22;2776;51.046;6.772;2022-11-04T10:00:53;12.40;99.90
5508;DHT22;2776;51.046;6.772;2022-11-04T10:03:40;12.30;99.90
5508;DHT22;2776;51.046;6.772;2022-11-04T10:06:23;12.30;99.90
5508;DHT22;2776;51.046;6.772;2022-11-04T10:09:03;12.20;99.90
5508;DHT22;2776;51.046;6.772;2022-11-04T10:11:36;12.30;99.90
5508;DHT22;2776;51.046;6.772;2022-11-04T10:14:22;12.20;99.90
5508;DHT22;2776;51.046;6.772;2022-11-04T10:17:00;12.40;99.90
5508;DHT22;2776;51.046;6.772;2022-11-04T10:19:40;12.40;99.90
5508;DHT22;2776;51.046;6.772;2022-11-04T10:22:13;12.40;99.90
5508;DHT22;2776;51.046;6.772;2022-11-04T10:24:51;12.50;99.90
5508;DHT22;2776;51.046;6.772;2022-11-04T10:27:24;12.50;99.90
5508;DHT22;2776;51.046;6.772;2022-11-04T10:29:54;12.60;99.90
5508;DHT22;2776;51.046;6.772;2022-11-04T10:32:27;12.60;99.90
5508;DHT22;2776;51.046;6.772;2022-11-04T10:34:58;12.70;99.90
5508;DHT22;2776;51.046;6.772;2022-11-04T10:37:26;12.60;99.90
5508;DHT22;2776;51.046;6.772;2022-11-04T10:40:01;12.70;99.90
5508;DHT22;2776;51.046;6.772;2022-11-04T10:42:31;12.70;99.90
5508;DHT22;2776;51.046;6.772;2022-11-04T10:44:58;12.80;99.90
5508;DHT22;2776;51.046;6.772;2022-11-04T10:47:32;12.90;99.90
5508;DHT22;2776;51.046;6.772;2022-11-04T10:50:19;13.00;99.90
5508;DHT22;2776;51.046;6.772;2022-11-04T10:52:47;13.10;99.90
5508;DHT22;2776;51.046;6.772;2022-11-04T10:55:25;13.20;99.90
5508;DHT22;2776;51.046;6.772;2022-11-04T10:57:55;13.20;99.90
5508;DHT22;2776;51.046;6.772;2022-11-04T11:00:33;13.30;99.90
5508;DHT22;2776;51.046;6.772;2022-11-04T11:02:59;13.20;99.90
5508;DHT22;2776;51.046;6.772;2022-11-04T11:05:26;13.30;99.90
5508;DHT22;2776;51.046;6.772;2022-11-04T11:07:55;13.30;99.90
5508;DHT22;2776;51.046;6.772;2022-11-04T11:10:25;13.40;99.90
5508;DHT22;2776;51.046;6.772;2022-11-04T11:12:55;13.40;99.90
5508;DHT22;2776;51.046;6.772;2022-11-04T11:15:28;13.40;99.90
5508;DHT22;2776;51.046;6.772;2022-11-04T11:18:00;13.30;99.90
5508;DHT22;2776;51.046;6.772;2022-11-04T11:20:36;13.30;99.90
5508;DHT22;2776;51.046;6.772;2022-11-04T11:23:08;13.30;99.90
5508;DHT22;2776;51.046;6.772;2022-11-04T11:25:56;13.40;99.90
5508;DHT22;2776;51.046;6.772;2022-11-04T11:28:23;13.40;99.90
5508;DHT22;2776;51.046;6.772;2022-11-04T11:30:56;13.50;99.90
5508;DHT22;2776;51.046;6.772;2022-11-04T11:33:26;13.60;99.90
5508;DHT22;2776;51.046;6.772;2022-11-04T11:35:55;13.70;99.90
5508;DHT22;2776;51.046;6.772;2022-11-04T11:38:26;13.70;99.90
5508;DHT22;2776;51.046;6.772;2022-11-04T11:41:05;13.80;99.90
5508;DHT22;2776;51.046;6.772;2022-11-04T11:43:34;13.80;99.90
5508;DHT22;2776;51.046;6.772;2022-11-04T11:46:02;13.70;99.90
5508;DHT22;2776;51.046;6.772;2022-11-04T11:48:31;13.60;99.90
5508;DHT22;2776;51.046;6.772;2022-11-04T11:50:58;13.40;99.90
5508;DHT22;2776;51.046;6.772;2022-11-04T11:53:27;13.40;99.90
5508;DHT22;2776;51.046;6.772;2022-11-04T11:56:02;13.20;99.90
5508;DHT22;2776;51.046;6.772;2022-11-04T11:58:36;13.20;99.90
5508;DHT22;2776;51.046;6.772;2022-11-04T12:01:10;13.20;99.90
5508;DHT22;2776;51.046;6.772;2022-11-04T12:03:42;13.20;99.90
5508;DHT22;2776;51.046;6.772;2022-11-04T12:06:23;13.20;99.90
5508;DHT22;2776;51.046;6.772;2022-11-04T12:09:03;13.30;99.90
5508;DHT22;2776;51.046;6.772;2022-11-04T12:11:39;13.40;99.90
5508;DHT22;2776;51.046;6.772;2022-11-04T12:14:14;13.40;99.90
5508;DHT22;2776;51.046;6.772;2022-11-04T12:16:47;13.40;99.90
5508;DHT22;2776;51.046;6.772;2022-11-04T12:19:27;13.50;99.90
5508;DHT22;2776;51.046;6.772;2022-11-04T12:22:00;13.50;99.90
5508;DHT22;2776;51.046;6.772;2022-11-04T12:24:36;13.50;99.90
5508;DHT22;2776;51.046;6.772;2022-11-04T12:27:08;13.50;99.90
5508;DHT22;2776;51.046;6.772;2022-11-04T12:29:51;13.70;99.90
5508;DHT22;2776;51.046;6.772;2022-11-04T12:32:27;13.80;99.90
5508;DHT22;2776;51.046;6.772;2022-11-04T12:35:08;13.90;99.90
5508;DHT22;2776;51.046;6.772;2022-11-04T12:37:43;13.90;99.90
5508;DHT22;2776;51.046;6.772;2022-11-04T12:40:20;14.00;99.90
5508;DHT22;2776;51.046;6.772;2022-11-04T12:43:01;14.00;99.90
5508;DHT22;2776;51.046;6.772;2022-11-04T12:45:42;14.10;99.90
5508;DHT22;2776;51.046;6.772;2022-11-04T12:48:26;14.10;99.90
5508;DHT22;2776;51.046;6.772;2022-11-04T12:51:01;14.10;99.90
5508;DHT22;2776;51.046;6.772;2022-11-04T12:53:47;14.00;99.90
5508;DHT22;2776;51.046;6.772;2022-11-04T12:56:19;13.90;99.90
5508;DHT22;2776;51.046;6.772;2022-11-04T12:59:05;14.00;99.90
5508;DHT22;2776;51.046;6.772;2022-11-04T13:01:39;13.90;99.90
5508;DHT22;2776;51.046;6.772;2022-11-04T13:04:11;14.00;99.90
5508;DHT22;2776;51.046;6.772;2022-11-04T13:06:41;14.00;99.90
5508;DHT22;2776;51.046;6.772;2022-11-04T13:09:12;14.10;99.90
5508;DHT22;2776;51.046;6.772;2022-11-04T13:11:46;14.10;99.90
5508;DHT22;2776;51.046;6.772;2022-11-04T13:14:19;14.20;99.90
5508;DHT22;2776;51.046;6.772;2022-11-04T13:16:57;14.20;99.90
5508;DHT22;2776;51.046;6.772;2022-11-04T13:19:28;14.20;99.90
5508;DHT22;2776;51.046;6.772;2022-11-04T13:21:57;14.10;99.90
5508;DHT22;2776;51.046;6.772;2022-11-04T13:24:29;14.10;99.90
5508;DHT22;2776;51.046;6.772;2022-11-04T13:27:00;14.10;99.90
5508;DHT22;2776;51.046;6.772;2022-11-04T13:29:29;14.10;99.90
5508;DHT22;2776;51.046;6.772;2022-11-04T13:32:03;14.00;99.90
5508;DHT22;2776;51.046;6.772;2022-11-04T13:34:37;13.80;99.90
5508;DHT22;2776;51.046;6.772;2022-11-04T13:37:17;13.80;99.90
5508;DHT22;2776;51.046;6.772;2022-11-04T13:39:49;13.70;99.90
5508;DHT22;2776;51.046;6.772;2022-11-04T13:42:40;13.70;99.90
5508;DHT22;2776;51.046;6.772;2022-11-04T13:45:11;13.70;99.90
5508;DHT22;2776;51.046;6.772;2022-11-04T13:47:45;13.80;99.90
5508;DHT22;2776;51.046;6.772;2022-11-04T13:50:31;13.80;99.90
5508;DHT22;2776;51.046;6.772;2022-11-04T13:53:00;13.70;99.90
5508;DHT22;2776;51.046;6.772;2022-11-04T13:55:27;13.80;99.90
5508;DHT22;2776;51.046;6.772;2022-11-04T13:57:56;13.80;99.90
5508;DHT22;2776;51.046;6.772;2022-11-04T14:00:25;13.80;99.90
5508;DHT22;2776;51.046;6.772;2022-11-04T14:02:54;13.70;99.90
5508;DHT22;2776;51.046;6.772;2022-11-04T14:06:00;13.70;99.90
5508;DHT22;2776;51.046;6.772;2022-11-04T14:08:28;13.70;99.90
5508;DHT22;2776;51.046;6.772;2022-11-04T14:11:08;13.70;99.90
5508;DHT22;2776;51.046;6.772;2022-11-04T14:14:03;13.70;99.90
5508;DHT22;2776;51.046;6.772;2022-11-04T14:16:40;13.70;99.90
5508;DHT22;2776;51.046;6.772;2022-11-04T14:22:30;13.50;99.90
5508;DHT22;2776;51.046;6.772;2022-11-04T14:24:58;13.40;99.90
5508;DHT22;2776;51.046;6.772;2022-11-04T14:27:33;13.50;99.90
5508;DHT22;2776;51.046;6.772;2022-11-04T14:30:01;13.40;99.90
5508;DHT22;2776;51.046;6.772;2022-11-04T14:32:31;13.40;99.90
5508;DHT22;2776;51.046;6.772;2022-11-04T14:35:02;13.50;99.90
5508;DHT22;2776;51.046;6.772;2022-11-04T14:37:32;13.50;99.90
5508;DHT22;2776;51.046;6.772;2022-11-04T14:40:01;13.40;99.90
5508;DHT22;2776;51.046;6.772;2022-11-04T14:42:44;13.40;99.90
5508;DHT22;2776;51.046;6.772;2022-11-04T14:45:15;13.30;99.90
5508;DHT22;2776;51.046;6.772;2022-11-04T14:47:47;13.40;99.90
5508;DHT22;2776;51.046;6.772;2022-11-04T14:50:18;13.20;99.90
5508;DHT22;2776;51.046;6.772;2022-11-04T14:52:49;13.10;99.90
5508;DHT22;2776;51.046;6.772;2022-11-04T14:55:19;13.00;99.90
5508;DHT22;2776;51.046;6.772;2022-11-04T14:57:48;13.00;99.90
5508;DHT22;2776;51.046;6.772;2022-11-04T15:00:57;13.00;99.90
5508;DHT22;2776;51.046;6.772;2022-11-04T15:03:26;13.00;99.90
5508;DHT22;2776;51.046;6.772;2022-11-04T15:05:55;13.00;99.90
5508;DHT22;2776;51.046;6.772;2022-11-04T15:08:28;13.00;99.90
5508;DHT22;2776;51.046;6.772;2022-11-04T15:11:01;13.00;99.90
5508;DHT22;2776;51.046;6.772;2022-11-04T15:13:33;12.80;99.90
5508;DHT22;2776;51.046;6.772;2022-11-04T15:16:03;12.70;99.90
5508;DHT22;2776;51.046;6.772;2022-11-04T15:18:32;12.70;99.90
5508;DHT22;2776;51.046;6.772;2022-11-04T15:21:02;12.60;99.90
5508;DHT22;2776;51.046;6.772;2022-11-04T15:23:33;12.60;99.90
5508;DHT22;2776;51.046;6.772;2022-11-04T15:26:01;12.50;99.90
5508;DHT22;2776;51.046;6.772;2022-11-04T15:28:31;12.50;99.90
5508;DHT22;2776;51.046;6.772;2022-11-04T15:31:16;12.50;99.90
5508;DHT22;2776;51.046;6.772;2022-11-04T15:33:46;12.50;99.90
5508;DHT22;2776;51.046;6.772;2022-11-04T15:36:17;12.50;99.90
5508;DHT22;2776;51.046;6.772;2022-11-04T15:38:50;12.40;99.90
5508;DHT22;2776;51.046;6.772;2022-11-04T15:41:20;12.40;99.90
5508;DHT22;2776;51.046;6.772;2022-11-04T15:44:15;12.40;99.90
5508;DHT22;2776;51.046;6.772;2022-11-04T15:46:48;12.40;99.90
5508;DHT22;2776;51.046;6.772;2022-11-04T15:49:20;12.30;99.90
5508;DHT22;2776;51.046;6.772;2022-11-04T15:51:48;12.30;99.90
5508;DHT22;2776;51.046;6.772;2022-11-04T15:54:20;12.20;99.90
5508;DHT22;2776;51.046;6.772;2022-11-04T15:56:51;12.20;99.90
5508;DHT22;2776;51.046;6.772;2022-11-04T15:59:22;12.10;99.90
5508;DHT22;2776;51.046;6.772;2022-11-04T16:01:51;12.00;99.90
5508;DHT22;2776;51.046;6.772;2022-11-04T16:04:21;12.00;99.90
5508;DHT22;2776;51.046;6.772;2022-11-04T16:07:03;11.90;99.90
5508;DHT22;2776;51.046;6.772;2022-11-04T16:09:45;11.90;99.90
5508;DHT22;2776;51.046;6.772;2022-11-04T16:12:14;11.80;99.90
5508;DHT22;2776;51.046;6.772;2022-11-04T16:14:49;11.70;99.90
5508;DHT22;2776;51.046;6.772;2022-11-04T16:17:16;11.60;99.90
5508;DHT22;2776;51.046;6.772;2022-11-04T16:19:46;11.40;99.90
5508;DHT22;2776;51.046;6.772;2022-11-04T16:22:18;11.30;99.90
5508;DHT22;2776;51.046;6.772;2022-11-04T16:24:48;11.30;99.90
5508;DHT22;2776;51.046;6.772;2022-11-04T16:27:18;11.30;99.90
5508;DHT22;2776;51.046;6.772;2022-11-04T16:29:52;11.20;99.90
5508;DHT22;2776;51.046;6.772;2022-11-04T16:32:24;11.20;99.90
5508;DHT22;2776;51.046;6.772;2022-11-04T16:34:53;11.20;99.90
5508;DHT22;2776;51.046;6.772;2022-11-04T16:37:20;11.10;99.90
5508;DHT22;2776;51.046;6.772;2022-11-04T16:39:48;11.10;99.90